Time;durP1;ratioP1;P1;durP2;ratioP2;P2;SDS_P1;SDS_P2;PMS_P1;PMS_P2;Temp;Humidity;BMP_temperature;BMP_pressure;BME280_temperature;BME280_humidity;BME280_pressure;Samples;Min_cycle;Max_cycle;Signal;HPM_P1;HPM_P2
2022/09/23 00:02:19;;;;;;;9.18;8.57;;;;;;;;;;5037946;28;20116;-64
2022/09/23 00:04:45;;;;;;;8.25;7.65;;;;;;;;;;5036947;28;20037;-64
2022/09/23 00:07:11;;;;;;;8.85;8.27;;;;;;;;;;5039917;28;20116;-64
2022/09/23 00:09:36;;;;;;;7.93;7.40;;;;;;;;;;5041305;28;20021;-64
2022/09/23 00:12:02;;;;;;;8.65;8.05;;;;;;;;;;5037777;28;20119;-64
2022/09/23 00:14:27;;;;;;;8.68;8.07;;;;;;;;;;5038406;28;20094;-65
2022/09/23 00:16:52;;;;;;;8.02;7.53;;;;;;;;;;5034987;28;20131;-64
2022/09/23 00:19:18;;;;;;;7.80;7.30;;;;;;;;;;5037219;28;20025;-64
2022/09/23 00:21:43;;;;;;;8.18;7.68;;;;;;;;;;5037101;28;20620;-64
2022/09/23 00:24:08;;;;;;;9.73;9.13;;;;;;;;;;5071087;28;20501;-64
2022/09/23 00:26:34;;;;;;;8.77;8.18;;;;;;;;;;5033314;28;20029;-64
2022/09/23 00:28:59;;;;;;;7.90;7.40;;;;;;;;;;5038511;28;20048;-64
2022/09/23 00:31:26;;;;;;;10.00;9.20;;;;;;;;;;5039208;28;20120;-64
2022/09/23 00:33:53;;;;;;;8.82;8.23;;;;;;;;;;5023849;28;20029;-64
2022/09/23 00:36:18;;;;;;;8.00;7.50;;;;;;;;;;5037060;28;20031;-64
2022/09/23 00:38:44;;;;;;;9.48;8.88;;;;;;;;;;5036013;28;20120;-64
2022/09/23 00:41:10;;;;;;;9.90;9.27;;;;;;;;;;5035761;28;20060;-64
2022/09/23 00:43:48;;;;;;;11.45;10.68;;;;;;;;;;5036580;28;20052;-64
2022/09/23 00:46:21;;;;;;;12.73;11.95;;;;;;;;;;5035780;28;20496;-64
2022/09/23 00:48:53;;;;;;;14.05;12.95;;;;;;;;;;5037259;28;20374;-64
2022/09/23 00:51:23;;;;;;;11.38;10.68;;;;;;;;;;5035518;28;20075;-64
2022/09/23 00:53:50;;;;;;;12.45;11.73;;;;;;;;;;5041130;28;20220;-64
2022/09/23 00:56:18;;;;;;;10.27;9.63;;;;;;;;;;5039622;28;20032;-64
2022/09/23 00:58:46;;;;;;;12.00;11.30;;;;;;;;;;5038102;28;20446;-64
2022/09/23 01:01:13;;;;;;;11.68;10.88;;;;;;;;;;5034892;28;20124;-64
2022/09/23 01:03:41;;;;;;;10.85;10.18;;;;;;;;;;5072527;28;20035;-64
2022/09/23 01:06:07;;;;;;;9.77;9.15;;;;;;;;;;5035691;28;20043;-64
2022/09/23 01:08:33;;;;;;;11.23;10.52;;;;;;;;;;5039390;28;20041;-64
2022/09/23 01:11:21;;;;;;;12.25;11.52;;;;;;;;;;5039865;28;20064;-64
2022/09/23 01:13:59;;;;;;;11.73;11.02;;;;;;;;;;5036819;28;20029;-64
2022/09/23 01:16:42;;;;;;;12.75;11.98;;;;;;;;;;5052246;28;20029;-64
2022/09/23 01:19:29;;;;;;;9.90;9.25;;;;;;;;;;5040082;28;20033;-64
2022/09/23 01:22:00;;;;;;;9.98;8.77;;;;;;;;;;5053827;28;20491;-64
2022/09/23 01:24:45;;;;;;;;;;;;;;;;;;5039135;28;20036;-64
2022/09/23 01:27:40;;;;;;;9.13;8.55;;;;;;;;;;5037648;28;20118;-64
2022/09/23 01:30:28;;;;;;;10.07;9.43;;;;;;;;;;5031035;28;20045;-64
2022/09/23 01:33:15;;;;;;;9.80;9.10;;;;;;;;;;5037772;28;20535;-64
2022/09/23 01:36:13;;;;;;;10.02;9.38;;;;;;;;;;5034703;28;20565;-64
2022/09/23 01:39:04;;;;;;;8.30;7.78;;;;;;;;;;5024607;28;20115;-64
2022/09/23 01:41:36;;;;;;;8.70;8.15;;;;;;;;;;5035898;28;20025;-64
2022/09/23 01:44:41;;;;;;;8.90;8.32;;;;;;;;;;5037787;28;20045;-64
2022/09/23 01:47:14;;;;;;;7.05;6.55;;;;;;;;;;5015012;28;20052;-64
2022/09/23 01:49:54;;;;;;;6.95;6.45;;;;;;;;;;5039044;28;20079;-64
2022/09/23 01:52:46;;;;;;;7.57;6.97;;;;;;;;;;5036862;28;20124;-64
2022/09/23 01:55:19;;;;;;;7.07;6.47;;;;;;;;;;5036823;28;20553;-64
2022/09/23 01:57:57;;;;;;;6.78;6.28;;;;;;;;;;5040706;28;20128;-64
2022/09/23 02:00:23;;;;;;;6.10;5.70;;;;;;;;;;5038650;28;20059;-64
2022/09/23 02:02:58;;;;;;;7.28;6.78;;;;;;;;;;5043887;28;20021;-64
2022/09/23 02:05:33;;;;;;;7.20;6.70;;;;;;;;;;5042499;28;20038;-64
2022/09/23 02:08:02;;;;;;;6.50;6.00;;;;;;;;;;5040784;28;20451;-64
2022/09/23 02:10:43;;;;;;;6.75;6.25;;;;;;;;;;5039457;28;20056;-64
2022/09/23 02:13:32;;;;;;;6.05;5.65;;;;;;;;;;5040966;28;20489;-64
2022/09/23 02:16:02;;;;;;;6.68;6.18;;;;;;;;;;5040550;28;20049;-64
2022/09/23 02:18:32;;;;;;;6.13;5.72;;;;;;;;;;5041889;28;20072;-64
2022/09/23 02:21:03;;;;;;;7.10;6.50;;;;;;;;;;5041338;28;20033;-64
2022/09/23 02:23:33;;;;;;;6.68;6.18;;;;;;;;;;5038274;28;20040;-64
2022/09/23 02:26:20;;;;;;;6.95;6.45;;;;;;;;;;5039426;28;20032;-64
2022/09/23 02:28:57;;;;;;;7.35;6.75;;;;;;;;;;5039791;28;20033;-64
2022/09/23 02:31:40;;;;;;;6.60;6.10;;;;;;;;;;5043843;28;20033;-64
2022/09/23 02:34:20;;;;;;;6.68;6.18;;;;;;;;;;5037939;28;20518;-64
2022/09/23 02:37:08;;;;;;;6.72;6.22;;;;;;;;;;5073579;28;20286;-64
2022/09/23 02:40:07;;;;;;;7.15;6.47;;;;;;;;;;5040903;28;20055;-64
2022/09/23 02:42:56;;;;;;;6.55;6.05;;;;;;;;;;5041005;28;20462;-64
2022/09/23 02:45:22;;;;;;;7.15;6.65;;;;;;;;;;5069946;28;20116;-64
2022/09/23 02:47:52;;;;;;;6.25;5.75;;;;;;;;;;5036465;28;20033;-64
2022/09/23 02:50:18;;;;;;;6.07;5.68;;;;;;;;;;5041668;28;20425;-64
2022/09/23 02:52:45;;;;;;;6.30;5.88;;;;;;;;;;5039096;28;20041;-63
2022/09/23 02:55:16;;;;;;;6.82;6.32;;;;;;;;;;5038484;28;20041;-63
2022/09/23 02:57:41;;;;;;;6.63;6.13;;;;;;;;;;5041706;28;20618;-65
2022/09/23 03:00:07;;;;;;;7.05;6.45;;;;;;;;;;5041073;28;20135;-65
2022/09/23 03:03:05;;;;;;;6.43;6.03;;;;;;;;;;5037239;28;20041;-65
2022/09/23 03:05:36;;;;;;;6.30;5.90;;;;;;;;;;5059537;28;20052;-65
2022/09/23 03:08:40;;;;;;;7.15;6.65;;;;;;;;;;5041961;28;20037;-65
2022/09/23 03:11:09;;;;;;;7.95;7.13;;;;;;;;;;5038973;28;20033;-65
2022/09/23 03:13:46;;;;;;;7.22;6.72;;;;;;;;;;5034491;28;20494;-64
2022/09/23 03:16:27;;;;;;;6.30;5.90;;;;;;;;;;5042116;28;20104;-65
2022/09/23 03:19:16;;;;;;;6.17;5.77;;;;;;;;;;5040026;28;20060;-65
2022/09/23 03:22:09;;;;;;;7.28;6.78;;;;;;;;;;5037297;28;20351;-65
2022/09/23 03:24:36;;;;;;;7.13;6.63;;;;;;;;;;5041265;28;20108;-65
2022/09/23 03:27:12;;;;;;;7.68;7.18;;;;;;;;;;5039997;28;20385;-65
2022/09/23 03:29:44;;;;;;;6.20;5.80;;;;;;;;;;5038578;28;20398;-65
2022/09/23 03:32:11;;;;;;;8.80;5.97;;;;;;;;;;5037451;28;20093;-65
2022/09/23 03:34:41;;;;;;;7.45;6.93;;;;;;;;;;5036300;28;20037;-65
2022/09/23 03:37:17;;;;;;;7.57;7.07;;;;;;;;;;5036157;28;20466;-63
2022/09/23 03:39:51;;;;;;;7.00;6.40;;;;;;;;;;5035429;28;20041;-64
2022/09/23 03:42:21;;;;;;;6.72;6.28;;;;;;;;;;5032640;28;20370;-64
2022/09/23 03:44:52;;;;;;;7.28;6.78;;;;;;;;;;5036218;28;20036;-65
2022/09/23 03:47:19;;;;;;;5.90;5.50;;;;;;;;;;5035641;28;20048;-64
2022/09/23 03:49:47;;;;;;;6.43;5.93;;;;;;;;;;5038391;28;20044;-65
2022/09/23 03:52:20;;;;;;;10.52;7.47;;;;;;;;;;5033927;28;20037;-64
2022/09/23 03:54:46;;;;;;;6.13;5.72;;;;;;;;;;5034809;28;20028;-64
2022/09/23 03:57:12;;;;;;;7.30;6.78;;;;;;;;;;5036717;28;20060;-63
2022/09/23 03:59:38;;;;;;;7.03;6.47;;;;;;;;;;5035425;28;20443;-65
2022/09/23 04:02:06;;;;;;;7.50;7.00;;;;;;;;;;5033562;28;20466;-64
2022/09/23 04:04:33;;;;;;;6.88;6.38;;;;;;;;;;5035734;28;20025;-65
2022/09/23 04:06:59;;;;;;;7.43;6.85;;;;;;;;;;5037536;28;20034;-64
2022/09/23 04:09:25;;;;;;;7.00;6.50;;;;;;;;;;5036383;28;20438;-64
2022/09/23 04:11:51;;;;;;;7.03;6.53;;;;;;;;;;5038485;28;20120;-64
2022/09/23 04:14:18;;;;;;;7.43;6.93;;;;;;;;;;5036565;28;20482;-64
2022/09/23 04:16:43;;;;;;;7.18;6.68;;;;;;;;;;5035416;28;20026;-64
2022/09/23 04:19:10;;;;;;;7.18;6.68;;;;;;;;;;5032218;28;20456;-64
2022/09/23 04:21:35;;;;;;;7.53;7.03;;;;;;;;;;5036790;28;20036;-64
2022/09/23 04:24:01;;;;;;;8.23;7.70;;;;;;;;;;5039375;28;20265;-65
2022/09/23 04:26:26;;;;;;;8.10;7.57;;;;;;;;;;5036594;28;20025;-64
2022/09/23 04:28:53;;;;;;;7.78;7.28;;;;;;;;;;5069105;28;20024;-64
2022/09/23 04:31:19;;;;;;;8.05;7.50;;;;;;;;;;5033273;28;20035;-64
2022/09/23 04:33:44;;;;;;;7.90;7.32;;;;;;;;;;5034717;28;20029;-64
2022/09/23 04:36:09;;;;;;;7.88;7.38;;;;;;;;;;5030944;28;20029;-64
2022/09/23 04:38:35;;;;;;;7.00;6.50;;;;;;;;;;5034075;28;20511;-64
2022/09/23 04:41:00;;;;;;;7.20;6.70;;;;;;;;;;5033908;28;20379;-64
2022/09/23 04:43:25;;;;;;;8.10;7.35;;;;;;;;;;5036710;28;20025;-63
2022/09/23 04:46:02;;;;;;;7.80;7.20;;;;;;;;;;5035297;28;20047;-63
2022/09/23 04:48:28;;;;;;;7.72;7.13;;;;;;;;;;5035941;28;20277;-63
2022/09/23 04:50:53;;;;;;;7.22;6.53;;;;;;;;;;5032954;28;20396;-64
2022/09/23 04:53:20;;;;;;;9.45;8.65;;;;;;;;;;5033501;28;20483;-64
2022/09/23 04:55:45;;;;;;;7.40;6.90;;;;;;;;;;5036652;28;20182;-64
2022/09/23 04:58:11;;;;;;;7.70;7.18;;;;;;;;;;5037601;28;20526;-64
2022/09/23 05:00:36;;;;;;;6.93;6.43;;;;;;;;;;5025612;28;20056;-64
2022/09/23 05:03:02;;;;;;;8.40;7.75;;;;;;;;;;5035956;28;20021;-63
2022/09/23 05:05:29;;;;;;;7.75;7.25;;;;;;;;;;5039376;28;20043;-63
2022/09/23 05:07:54;;;;;;;9.25;8.65;;;;;;;;;;5037789;28;20055;-64
2022/09/23 05:10:21;;;;;;;7.32;6.82;;;;;;;;;;5035384;28;20240;-64
2022/09/23 05:12:47;;;;;;;7.57;7.07;;;;;;;;;;5033546;28;20146;-64
2022/09/23 05:15:13;;;;;;;8.55;7.95;;;;;;;;;;5034146;28;20048;-64
2022/09/23 05:17:39;;;;;;;8.00;7.40;;;;;;;;;;5036241;28;20039;-64
2022/09/23 05:20:05;;;;;;;7.95;7.35;;;;;;;;;;5036026;28;20378;-64
2022/09/23 05:22:31;;;;;;;7.10;6.60;;;;;;;;;;5035097;28;20681;-64
2022/09/23 05:24:58;;;;;;;8.32;7.72;;;;;;;;;;5036546;28;20518;-64
2022/09/23 05:27:24;;;;;;;7.75;7.20;;;;;;;;;;5033389;28;20049;-64
2022/09/23 05:29:50;;;;;;;9.43;8.82;;;;;;;;;;5033403;28;20360;-64
2022/09/23 05:32:16;;;;;;;7.90;7.40;;;;;;;;;;5035036;28;20044;-64
2022/09/23 05:34:41;;;;;;;8.35;7.55;;;;;;;;;;5038244;28;20017;-64
2022/09/23 05:37:07;;;;;;;9.63;8.93;;;;;;;;;;5039557;28;20509;-64
2022/09/23 05:39:32;;;;;;;8.85;8.25;;;;;;;;;;5038200;28;20052;-64
2022/09/23 05:41:59;;;;;;;8.27;7.68;;;;;;;;;;5036257;28;20057;-64
2022/09/23 05:44:24;;;;;;;8.35;7.78;;;;;;;;;;5038207;28;20036;-64
2022/09/23 05:46:49;;;;;;;8.13;7.53;;;;;;;;;;5037680;28;20021;-63
2022/09/23 05:49:15;;;;;;;7.90;7.40;;;;;;;;;;5038264;28;20033;-63
2022/09/23 05:51:40;;;;;;;8.35;7.75;;;;;;;;;;5037702;28;20140;-64
2022/09/23 05:54:06;;;;;;;8.10;7.55;;;;;;;;;;5038937;28;20025;-63
2022/09/23 05:56:32;;;;;;;8.90;8.20;;;;;;;;;;5038274;28;20129;-63
2022/09/23 05:59:00;;;;;;;8.07;7.57;;;;;;;;;;5039247;28;20462;-64
2022/09/23 06:01:30;;;;;;;8.50;7.90;;;;;;;;;;5038156;28;20096;-64
2022/09/23 06:03:56;;;;;;;7.82;7.32;;;;;;;;;;5035566;28;20069;-64
2022/09/23 06:06:30;;;;;;;8.40;7.80;;;;;;;;;;5036538;28;20025;-63
2022/09/23 06:08:57;;;;;;;8.77;7.85;;;;;;;;;;5036425;28;20519;-64
2022/09/23 06:11:23;;;;;;;6.93;6.43;;;;;;;;;;5038090;28;20056;-64
2022/09/23 06:13:49;;;;;;;7.22;6.72;;;;;;;;;;5040169;28;20057;-64
2022/09/23 06:16:15;;;;;;;6.70;6.20;;;;;;;;;;5041050;28;20045;-63
2022/09/23 06:18:42;;;;;;;7.55;7.05;;;;;;;;;;5041130;28;20326;-64
2022/09/23 06:21:10;;;;;;;7.20;6.70;;;;;;;;;;5035933;28;20025;-64
2022/09/23 06:23:36;;;;;;;7.85;7.25;;;;;;;;;;5032983;28;20448;-64
2022/09/23 06:26:03;;;;;;;7.85;7.35;;;;;;;;;;5037373;28;20048;-64
2022/09/23 06:28:31;;;;;;;7.25;6.75;;;;;;;;;;5035208;28;20029;-64
2022/09/23 06:31:01;;;;;;;6.85;6.35;;;;;;;;;;5025397;28;20057;-64
2022/09/23 06:33:28;;;;;;;8.48;7.88;;;;;;;;;;5037987;28;20032;-64
2022/09/23 06:36:01;;;;;;;7.30;6.80;;;;;;;;;;5042737;28;20075;-64
2022/09/23 06:38:27;;;;;;;8.75;8.15;;;;;;;;;;5035697;28;20522;-64
2022/09/23 06:40:55;;;;;;;8.13;7.53;;;;;;;;;;5038409;28;20048;-64
2022/09/23 06:43:22;;;;;;;7.97;7.45;;;;;;;;;;5038180;28;20359;-64
2022/09/23 06:45:55;;;;;;;8.15;7.65;;;;;;;;;;5036214;28;20129;-64
2022/09/23 06:48:21;;;;;;;7.18;6.68;;;;;;;;;;5038975;28;20020;-64
2022/09/23 06:50:49;;;;;;;8.40;7.80;;;;;;;;;;5037429;28;20033;-64
2022/09/23 06:53:15;;;;;;;8.45;7.85;;;;;;;;;;5043625;28;20029;-64
2022/09/23 06:55:42;;;;;;;8.57;7.97;;;;;;;;;;5034890;28;20138;-64
2022/09/23 06:58:07;;;;;;;8.18;7.57;;;;;;;;;;5034442;28;20111;-64
2022/09/23 07:00:33;;;;;;;6.82;6.32;;;;;;;;;;5040135;28;20072;-64
2022/09/23 07:02:58;;;;;;;7.32;6.82;;;;;;;;;;5036044;28;20044;-66
2022/09/23 07:05:24;;;;;;;8.93;8.18;;;;;;;;;;5036665;28;20029;-64
2022/09/23 07:07:49;;;;;;;7.97;7.45;;;;;;;;;;5035180;28;20041;-64
2022/09/23 07:10:15;;;;;;;7.45;6.95;;;;;;;;;;5037892;28;20037;-64
2022/09/23 07:12:41;;;;;;;6.90;6.40;;;;;;;;;;5039116;28;20032;-64
2022/09/23 07:15:08;;;;;;;7.20;6.70;;;;;;;;;;5035530;28;20040;-64
2022/09/23 07:17:34;;;;;;;7.65;7.15;;;;;;;;;;5036590;28;20032;-65
2022/09/23 07:19:59;;;;;;;6.68;6.18;;;;;;;;;;5036109;28;20064;-64
2022/09/23 07:22:25;;;;;;;7.43;6.93;;;;;;;;;;5038664;28;20033;-64
2022/09/23 07:24:54;;;;;;;6.72;6.22;;;;;;;;;;5037341;28;20041;-64
2022/09/23 07:27:22;;;;;;;6.95;6.40;;;;;;;;;;5036058;28;20029;-64
2022/09/23 07:29:49;;;;;;;6.25;5.75;;;;;;;;;;5035334;28;20030;-64
2022/09/23 07:32:15;;;;;;;5.90;5.50;;;;;;;;;;5031550;28;20451;-64
2022/09/23 07:34:41;;;;;;;5.82;5.43;;;;;;;;;;5036198;28;20033;-64
2022/09/23 07:37:07;;;;;;;6.28;5.78;;;;;;;;;;5036657;28;20622;-64
2022/09/23 07:39:35;;;;;;;5.68;5.28;;;;;;;;;;5037956;28;20044;-72
2022/09/23 07:42:04;;;;;;;6.57;5.03;;;;;;;;;;5035630;28;20037;-72
2022/09/23 07:44:30;;;;;;;6.22;5.63;;;;;;;;;;5037114;28;20025;-71
2022/09/23 07:46:57;;;;;;;7.90;7.30;;;;;;;;;;5031202;28;20041;-72
2022/09/23 07:49:23;;;;;;;6.95;6.35;;;;;;;;;;5039445;28;20053;-72
2022/09/23 07:51:48;;;;;;;5.75;5.35;;;;;;;;;;5033923;28;20463;-72
2022/09/23 07:54:15;;;;;;;6.65;6.15;;;;;;;;;;5038457;28;20082;-72
2022/09/23 07:56:41;;;;;;;6.07;5.68;;;;;;;;;;5036394;28;20025;-72
2022/09/23 07:59:10;;;;;;;6.70;6.20;;;;;;;;;;5068294;28;20494;-71
2022/09/23 08:01:43;;;;;;;6.88;6.38;;;;;;;;;;5037940;28;20033;-72
2022/09/23 08:04:27;;;;;;;7.80;7.20;;;;;;;;;;5034710;28;20041;-72
2022/09/23 08:06:59;;;;;;;7.65;7.15;;;;;;;;;;5036971;28;20030;-72
2022/09/23 08:09:28;;;;;;;7.97;7.35;;;;;;;;;;5033194;28;20094;-72
2022/09/23 08:11:54;;;;;;;5.93;5.53;;;;;;;;;;5037510;28;20133;-72
2022/09/23 08:14:21;;;;;;;7.30;6.80;;;;;;;;;;5034930;28;20119;-73
2022/09/23 08:16:47;;;;;;;5.95;5.55;;;;;;;;;;5032860;28;20029;-72
2022/09/23 08:19:13;;;;;;;6.97;6.47;;;;;;;;;;5034158;28;20048;-72
2022/09/23 08:21:39;;;;;;;6.10;5.70;;;;;;;;;;5037276;28;20033;-73
2022/09/23 08:24:06;;;;;;;6.35;5.85;;;;;;;;;;5036719;28;20025;-72
2022/09/23 08:26:33;;;;;;;6.40;5.95;;;;;;;;;;5035605;28;20589;-73
2022/09/23 08:28:59;;;;;;;6.28;5.82;;;;;;;;;;5034039;28;20513;-74
2022/09/23 08:31:24;;;;;;;6.28;5.78;;;;;;;;;;5034961;28;20037;-74
2022/09/23 08:33:54;;;;;;;6.28;5.82;;;;;;;;;;5034702;28;20039;-70
2022/09/23 08:36:20;;;;;;;6.30;5.80;;;;;;;;;;5035046;28;20062;-70
2022/09/23 08:38:45;;;;;;;6.63;6.13;;;;;;;;;;5038139;28;20539;-72
2022/09/23 08:41:42;;;;;;;7.28;6.68;;;;;;;;;;5039495;28;20029;-71
2022/09/23 08:44:40;;;;;;;7.07;6.57;;;;;;;;;;5035788;28;20032;-71
2022/09/23 08:47:27;;;;;;;7.28;6.78;;;;;;;;;;5034045;28;20064;-70
2022/09/23 08:50:05;;;;;;;8.50;7.90;;;;;;;;;;5036789;28;20036;-70
2022/09/23 08:52:34;;;;;;;9.52;8.82;;;;;;;;;;5035458;28;20040;-71
2022/09/23 08:55:02;;;;;;;9.38;8.77;;;;;;;;;;5036432;28;20529;-71
2022/09/23 08:58:18;;;;;;;10.00;9.40;;;;;;;;;;5037796;28;20039;-74
2022/09/23 09:00:55;;;;;;;8.10;7.55;;;;;;;;;;5024017;28;20081;-71
2022/09/23 09:03:34;;;;;;;10.35;9.65;;;;;;;;;;5034616;28;20029;-69
2022/09/23 09:05:59;;;;;;;9.00;8.40;;;;;;;;;;5038463;28;20033;-70
2022/09/23 09:08:31;;;;;;;9.07;8.48;;;;;;;;;;5036768;28;20033;-70
2022/09/23 09:10:57;;;;;;;9.07;8.48;;;;;;;;;;5039996;28;20063;-71
2022/09/23 09:13:42;;;;;;;8.00;7.50;;;;;;;;;;5068712;28;20140;-68
2022/09/23 09:16:26;;;;;;;8.00;7.50;;;;;;;;;;5039027;28;20069;-69
2022/09/23 09:18:54;;;;;;;12.18;11.38;;;;;;;;;;5041326;28;20025;-69
2022/09/23 09:21:37;;;;;;;19.33;18.13;;;;;;;;;;5038433;28;20079;-69
2022/09/23 09:24:13;;;;;;;11.65;10.95;;;;;;;;;;5033935;28;20052;-69
2022/09/23 09:26:39;;;;;;;19.67;18.58;;;;;;;;;;5039549;28;20028;-69
2022/09/23 09:29:17;;;;;;;19.52;18.42;;;;;;;;;;5038675;28;20033;-69
2022/09/23 09:31:48;;;;;;;20.25;19.15;;;;;;;;;;5037073;28;20101;-69
2022/09/23 09:34:25;;;;;;;20.98;19.88;;;;;;;;;;5040888;28;20124;-69
2022/09/23 09:37:05;;;;;;;20.60;19.50;;;;;;;;;;5036716;28;20025;-69
2022/09/23 09:39:32;;;;;;;19.53;18.43;;;;;;;;;;5037588;28;20131;-69
2022/09/23 09:41:59;;;;;;;21.05;19.92;;;;;;;;;;5039708;28;20370;-69
2022/09/23 09:44:44;;;;;;;22.50;21.27;;;;;;;;;;5044810;28;20033;-69
2022/09/23 09:47:19;;;;;;;20.27;19.17;;;;;;;;;;5040535;28;20111;-68
2022/09/23 09:49:52;;;;;;;21.73;20.52;;;;;;;;;;5037453;28;20083;-68
2022/09/23 09:52:22;;;;;;;24.42;23.13;;;;;;;;;;5054812;28;20058;-69
2022/09/23 09:54:49;;;;;;;20.33;19.23;;;;;;;;;;5039871;28;20057;-68
2022/09/23 09:57:36;;;;;;;22.77;21.52;;;;;;;;;;5035476;28;20068;-68
2022/09/23 10:00:17;;;;;;;23.45;22.15;;;;;;;;;;5037016;28;20029;-68
2022/09/23 10:02:43;;;;;;;24.77;23.48;;;;;;;;;;5039727;28;20033;-69
2022/09/23 10:05:44;;;;;;;27.88;26.38;;;;;;;;;;5039192;28;20029;-68
2022/09/23 10:08:33;;;;;;;28.45;26.95;;;;;;;;;;5035657;28;20562;-67
2022/09/23 10:11:14;;;;;;;27.88;26.40;;;;;;;;;;5041465;28;20091;-68
2022/09/23 10:13:40;;;;;;;24.70;23.38;;;;;;;;;;5074408;28;20395;-69
2022/09/23 10:16:06;;;;;;;27.55;26.08;;;;;;;;;;5038988;28;20386;-69
2022/09/23 10:18:37;;;;;;;32.03;30.33;;;;;;;;;;5039047;28;20274;-69
2022/09/23 10:21:13;;;;;;;;;;;;;;;;;;5040104;28;20029;-69
2022/09/23 10:23:44;;;;;;;22.52;21.33;;;;;;;;;;5038247;28;20341;-69
2022/09/23 10:26:11;;;;;;;;;;;;;;;;;;5040832;28;20045;-64
2022/09/23 10:29:00;;;;;;;23.67;22.35;;;;;;;;;;5038280;28;19924;-63
2022/09/23 10:31:31;;;;;;;26.48;25.08;;;;;;;;;;5037085;28;20060;-63
2022/09/23 10:34:22;;;;;;;32.53;30.83;;;;;;;;;;5040487;28;20690;-68
2022/09/23 10:37:00;;;;;;;37.53;35.33;;;;;;;;;;5041003;28;20091;-68
2022/09/23 10:48:12;;;;;;;38.22;36.25;;;;;;;;;;5038509;28;20039;-67
2022/09/23 10:50:47;;;;;;;40.08;38.03;;;;;;;;;;5037021;28;20103;-67
2022/09/23 10:53:24;;;;;;;46.83;44.42;;;;;;;;;;5039175;28;20029;-68
2022/09/23 10:56:05;;;;;;;35.90;33.92;;;;;;;;;;5037612;28;20068;-68
2022/09/23 10:58:36;;;;;;;42.00;39.85;;;;;;;;;;5040185;28;20033;-70
2022/09/23 11:01:23;;;;;;;48.40;45.92;;;;;;;;;;5038196;28;20043;-69
2022/09/23 11:04:27;;;;;;;44.20;41.95;;;;;;;;;;5040938;28;20517;-70
2022/09/23 11:07:09;;;;;;;43.33;41.08;;;;;;;;;;5037766;28;20541;-70
2022/09/23 11:09:58;;;;;;;42.42;40.22;;;;;;;;;;5035723;28;20072;-68
2022/09/23 11:12:53;;;;;;;43.17;40.95;;;;;;;;;;5035403;28;20124;-68
2022/09/23 11:15:43;;;;;;;38.53;36.55;;;;;;;;;;5036012;28;20029;-69
2022/09/23 11:18:37;;;;;;;46.17;43.63;;;;;;;;;;5038520;28;20764;-69
2022/09/23 11:21:19;;;;;;;37.92;35.97;;;;;;;;;;5038974;28;20052;-69
2022/09/23 11:24:06;;;;;;;43.67;41.33;;;;;;;;;;5033904;28;20037;-68
2022/09/23 11:26:55;;;;;;;35.97;34.13;;;;;;;;;;5037487;28;20052;-68
2022/09/23 11:29:49;;;;;;;47.42;44.97;;;;;;;;;;5034689;28;20025;-67
2022/09/23 11:32:21;;;;;;;42.38;40.20;;;;;;;;;;5036876;28;20061;-70
2022/09/23 11:35:02;;;;;;;43.00;40.80;;;;;;;;;;5034723;28;20167;-68
2022/09/23 11:37:39;;;;;;;40.88;38.78;;;;;;;;;;5036331;28;20035;-68
2022/09/23 11:40:19;;;;;;;50.38;47.85;;;;;;;;;;5038102;28;20036;-70
2022/09/23 11:43:12;;;;;;;60.55;57.45;;;;;;;;;;5041775;28;20083;-71
2022/09/23 11:45:50;;;;;;;49.17;46.63;;;;;;;;;;5028442;28;20146;-70
2022/09/23 11:48:26;;;;;;;38.70;36.72;;;;;;;;;;5034936;28;20062;-70
2022/09/23 11:51:06;;;;;;;38.65;36.65;;;;;;;;;;5037093;28;20025;-66
2022/09/23 11:53:54;;;;;;;44.88;42.60;;;;;;;;;;5035848;28;20474;-65
2022/09/23 11:56:22;;;;;;;50.38;47.78;;;;;;;;;;5034120;28;20036;-64
2022/09/23 11:59:09;;;;;;;55.17;52.40;;;;;;;;;;5037924;28;20120;-64
2022/09/23 12:01:46;;;;;;;43.22;41.00;;;;;;;;;;5036612;28;20022;-64
2022/09/23 12:04:18;;;;;;;46.83;44.42;;;;;;;;;;5036752;28;20105;-64
2022/09/23 12:06:47;;;;;;;47.78;45.30;;;;;;;;;;5035367;28;20033;-65
2022/09/23 12:09:34;;;;;;;44.50;41.97;;;;;;;;;;5037140;28;20068;-66
2022/09/23 12:12:22;;;;;;;44.20;41.95;;;;;;;;;;5036317;28;20027;-65
2022/09/23 12:15:03;;;;;;;44.55;42.22;;;;;;;;;;5033540;28;20021;-66
2022/09/23 12:17:59;;;;;;;46.30;43.92;;;;;;;;;;5039371;28;21411;-69
2022/09/23 12:20:34;;;;;;;42.03;39.90;;;;;;;;;;5037036;28;20109;-69
2022/09/23 12:23:20;;;;;;;42.78;40.58;;;;;;;;;;5036858;28;20039;-69
2022/09/23 12:25:55;;;;;;;49.03;46.47;;;;;;;;;;5035272;28;20719;-70
2022/09/23 12:28:28;;;;;;;52.40;49.78;;;;;;;;;;5036337;28;20556;-70
2022/09/23 12:30:57;;;;;;;49.42;46.70;;;;;;;;;;5037433;28;20045;-70
2022/09/23 12:33:37;;;;;;;51.45;48.80;;;;;;;;;;5036812;28;20047;-69
2022/09/23 12:36:05;;;;;;;55.93;53.07;;;;;;;;;;5035775;28;20329;-70
2022/09/23 12:38:35;;;;;;;48.13;45.65;;;;;;;;;;5036164;28;20036;-70
2022/09/23 12:41:17;;;;;;;43.13;40.28;;;;;;;;;;5030714;28;20087;-68
2022/09/23 12:43:52;;;;;;;55.35;52.55;;;;;;;;;;5034622;28;20117;-69
2022/09/23 12:46:26;;;;;;;45.60;43.28;;;;;;;;;;5034970;28;20040;-69
2022/09/23 12:48:58;;;;;;;49.75;47.22;;;;;;;;;;5031122;28;20043;-68
2022/09/23 12:51:33;;;;;;;46.05;43.72;;;;;;;;;;5033143;28;20037;-68
2022/09/23 12:54:04;;;;;;;51.58;48.95;;;;;;;;;;5036250;28;20041;-69
2022/09/23 12:56:30;;;;;;;65.40;62.13;;;;;;;;;;5031817;28;20037;-69
2022/09/23 12:59:14;;;;;;;59.63;56.63;;;;;;;;;;5035430;28;20114;-69
2022/09/23 13:01:40;;;;;;;52.05;49.28;;;;;;;;;;5034843;28;20021;-69
2022/09/23 13:07:15;;;;;;;45.90;43.55;;;;;;;;;;5065234;28;20032;-69
2022/09/23 13:09:46;;;;;;;44.25;41.92;;;;;;;;;;5033611;28;20049;-69
2022/09/23 13:12:18;;;;;;;44.90;42.55;;;;;;;;;;5035764;28;20048;-68
2022/09/23 13:14:47;;;;;;;51.13;48.55;;;;;;;;;;5036943;28;20547;-68
2022/09/23 13:17:31;;;;;;;42.85;40.67;;;;;;;;;;5048137;28;20507;-69
2022/09/23 13:20:17;;;;;;;41.97;39.80;;;;;;;;;;5038000;28;20036;-68
2022/09/23 13:22:49;;;;;;;49.20;46.70;;;;;;;;;;5034290;28;20063;-68
2022/09/23 13:25:26;;;;;;;52.60;49.97;;;;;;;;;;5034102;28;20025;-64
2022/09/23 13:27:56;;;;;;;42.85;40.63;;;;;;;;;;5037389;28;20037;-64
2022/09/23 13:30:24;;;;;;;48.13;45.67;;;;;;;;;;5036708;28;20060;-64
2022/09/23 13:32:52;;;;;;;49.63;47.10;;;;;;;;;;5065406;28;20025;-63
2022/09/23 13:35:29;;;;;;;42.30;40.10;;;;;;;;;;5037228;28;20036;-61
2022/09/23 13:37:55;;;;;;;48.63;46.17;;;;;;;;;;5035459;28;20040;-64
2022/09/23 13:40:28;;;;;;;50.95;48.33;;;;;;;;;;5036243;28;20843;-62
2022/09/23 13:43:00;;;;;;;51.03;48.42;;;;;;;;;;5035654;28;20201;-65
2022/09/23 13:45:27;;;;;;;47.05;44.67;;;;;;;;;;5040224;28;20570;-66
2022/09/23 13:47:59;;;;;;;56.40;53.42;;;;;;;;;;5037312;28;20067;-62
2022/09/23 13:50:25;;;;;;;51.90;49.30;;;;;;;;;;5032364;28;20075;-65
2022/09/23 13:52:53;;;;;;;57.50;54.63;;;;;;;;;;5031103;28;20503;-64
2022/09/23 13:55:31;;;;;;;56.53;53.65;;;;;;;;;;5034535;28;20025;-65
2022/09/23 13:58:03;;;;;;;53.35;50.60;;;;;;;;;;5035296;28;20044;-63
2022/09/23 14:00:34;;;;;;;51.88;49.25;;;;;;;;;;5038812;28;20033;-64
2022/09/23 14:03:00;;;;;;;60.95;57.90;;;;;;;;;;5038668;28;20026;-64
2022/09/23 14:05:33;;;;;;;62.88;59.63;;;;;;;;;;5041779;28;20025;-63
2022/09/23 14:07:58;;;;;;;59.75;56.70;;;;;;;;;;5043665;28;20040;-65
2022/09/23 14:10:26;;;;;;;64.15;60.80;;;;;;;;;;5043444;28;20028;-63
2022/09/23 14:12:53;;;;;;;63.17;60.03;;;;;;;;;;5036728;28;20104;-63
2022/09/23 14:15:19;;;;;;;61.55;58.42;;;;;;;;;;5033699;28;20030;-64
2022/09/23 14:17:55;;;;;;;61.45;58.35;;;;;;;;;;5044810;28;20052;-63
2022/09/23 14:20:22;;;;;;;56.83;53.88;;;;;;;;;;5037740;28;20040;-62
2022/09/23 14:23:01;;;;;;;48.65;46.17;;;;;;;;;;5039506;28;20040;-63
2022/09/23 14:25:27;;;;;;;48.95;46.45;;;;;;;;;;5035750;28;20085;-65
2022/09/23 14:27:52;;;;;;;54.20;51.45;;;;;;;;;;5038123;28;20119;-64
2022/09/23 14:30:18;;;;;;;46.55;44.15;;;;;;;;;;5037530;28;20124;-65
2022/09/23 14:32:46;;;;;;;42.97;40.78;;;;;;;;;;5035890;28;20045;-65
2022/09/23 14:35:25;;;;;;;41.53;39.40;;;;;;;;;;5038211;28;20133;-65
2022/09/23 14:41:14;;;;;;;57.90;54.97;;;;;;;;;;5036223;28;20040;-64
2022/09/23 14:43:47;;;;;;;48.30;45.88;;;;;;;;;;5036438;28;20752;-66
2022/09/23 14:46:20;;;;;;;51.47;48.88;;;;;;;;;;5039067;28;20416;-63
2022/09/23 14:49:00;;;;;;;45.88;43.53;;;;;;;;;;5035149;28;20125;-64
2022/09/23 14:51:31;;;;;;;46.67;44.28;;;;;;;;;;5040527;28;20029;-69
2022/09/23 14:54:24;;;;;;;44.63;41.97;;;;;;;;;;5034961;28;20045;-68
2022/09/23 14:56:49;;;;;;;41.60;39.45;;;;;;;;;;5032810;28;20045;-66
2022/09/23 14:59:26;;;;;;;51.83;49.17;;;;;;;;;;5037056;28;20575;-69
2022/09/23 15:01:51;;;;;;;54.10;51.35;;;;;;;;;;5040439;28;20040;-68
2022/09/23 15:04:20;;;;;;;52.05;49.40;;;;;;;;;;5038607;28;20041;-68
2022/09/23 15:06:48;;;;;;;46.83;44.45;;;;;;;;;;5036614;28;20634;-69
2022/09/23 15:09:22;;;;;;;58.15;55.25;;;;;;;;;;5037546;28;20072;-68
2022/09/23 15:11:50;;;;;;;55.08;52.30;;;;;;;;;;5037336;28;20502;-68
2022/09/23 15:14:17;;;;;;;52.45;49.70;;;;;;;;;;5038933;28;20042;-70
2022/09/23 15:16:44;;;;;;;58.30;55.38;;;;;;;;;;5022608;28;20021;-69
2022/09/23 15:19:17;;;;;;;46.72;44.33;;;;;;;;;;5038059;28;20030;-67
2022/09/23 15:21:45;;;;;;;56.38;53.50;;;;;;;;;;5037386;28;20124;-68